sensor_id;sensor_type;location;lat;lon;timestamp;P1;durP1;ratioP1;P2;durP2;ratioP2
52124;SDS011;38119;52.710;6.398;2023-06-22T00:01:47;20.27;;;16.20;;
52124;SDS011;38119;52.710;6.398;2023-06-22T00:04:13;19.33;;;16.27;;
52124;SDS011;38119;52.710;6.398;2023-06-22T00:06:39;18.63;;;15.02;;
52124;SDS011;38119;52.710;6.398;2023-06-22T00:09:04;18.07;;;15.80;;
52124;SDS011;38119;52.710;6.398;2023-06-22T00:11:32;20.08;;;15.63;;
52124;SDS011;38119;52.710;6.398;2023-06-22T00:14:07;17.48;;;14.90;;
52124;SDS011;38119;52.710;6.398;2023-06-22T00:16:32;18.80;;;16.48;;
52124;SDS011;38119;52.710;6.398;2023-06-22T00:18:58;21.35;;;15.55;;
52124;SDS011;38119;52.710;6.398;2023-06-22T00:21:28;21.25;;;18.00;;
52124;SDS011;38119;52.710;6.398;2023-06-22T00:23:54;20.65;;;18.00;;
52124;SDS011;38119;52.710;6.398;2023-06-22T00:26:20;22.17;;;17.83;;
52124;SDS011;38119;52.710;6.398;2023-06-22T00:28:47;21.60;;;18.20;;
52124;SDS011;38119;52.710;6.398;2023-06-22T00:31:12;21.67;;;18.57;;
52124;SDS011;38119;52.710;6.398;2023-06-22T00:33:38;20.13;;;17.50;;
52124;SDS011;38119;52.710;6.398;2023-06-22T00:36:04;21.93;;;18.60;;
52124;SDS011;38119;52.710;6.398;2023-06-22T00:38:31;22.75;;;19.58;;
52124;SDS011;38119;52.710;6.398;2023-06-22T00:40:56;24.90;;;21.23;;
52124;SDS011;38119;52.710;6.398;2023-06-22T00:43:22;25.15;;;21.15;;
52124;SDS011;38119;52.710;6.398;2023-06-22T00:45:47;26.40;;;22.27;;
52124;SDS011;38119;52.710;6.398;2023-06-22T00:48:13;24.03;;;20.83;;
52124;SDS011;38119;52.710;6.398;2023-06-22T00:50:40;22.23;;;19.67;;
52124;SDS011;38119;52.710;6.398;2023-06-22T00:53:07;23.00;;;19.13;;
52124;SDS011;38119;52.710;6.398;2023-06-22T00:55:35;19.90;;;17.60;;
52124;SDS011;38119;52.710;6.398;2023-06-22T00:58:04;22.15;;;18.25;;
52124;SDS011;38119;52.710;6.398;2023-06-22T01:00:35;20.38;;;17.30;;
52124;SDS011;38119;52.710;6.398;2023-06-22T01:03:01;22.08;;;18.02;;
52124;SDS011;38119;52.710;6.398;2023-06-22T01:05:27;22.13;;;18.63;;
52124;SDS011;38119;52.710;6.398;2023-06-22T01:16:23;25.73;;;21.77;;
52124;SDS011;38119;52.710;6.398;2023-06-22T01:18:52;24.52;;;20.40;;
52124;SDS011;38119;52.710;6.398;2023-06-22T01:21:20;25.58;;;21.55;;
52124;SDS011;38119;52.710;6.398;2023-06-22T01:24:11;26.20;;;23.33;;
52124;SDS011;38119;52.710;6.398;2023-06-22T01:29:36;31.60;;;27.70;;
52124;SDS011;38119;52.710;6.398;2023-06-22T01:32:04;33.30;;;27.40;;
52124;SDS011;38119;52.710;6.398;2023-06-22T01:34:31;32.67;;;27.47;;
52124;SDS011;38119;52.710;6.398;2023-06-22T01:36:58;34.77;;;28.53;;
52124;SDS011;38119;52.710;6.398;2023-06-22T01:39:25;33.05;;;27.92;;
52124;SDS011;38119;52.710;6.398;2023-06-22T01:41:52;35.95;;;29.15;;
52124;SDS011;38119;52.710;6.398;2023-06-22T01:44:19;32.60;;;28.45;;
52124;SDS011;38119;52.710;6.398;2023-06-22T01:46:45;33.35;;;29.00;;
52124;SDS011;38119;52.710;6.398;2023-06-22T01:49:12;34.83;;;29.53;;
52124;SDS011;38119;52.710;6.398;2023-06-22T01:51:38;35.78;;;29.33;;
52124;SDS011;38119;52.710;6.398;2023-06-22T01:54:05;34.23;;;29.77;;
52124;SDS011;38119;52.710;6.398;2023-06-22T01:56:32;34.15;;;29.58;;
52124;SDS011;38119;52.710;6.398;2023-06-22T01:59:21;34.08;;;29.48;;
52124;SDS011;38119;52.710;6.398;2023-06-22T02:01:57;34.17;;;29.83;;
52124;SDS011;38119;52.710;6.398;2023-06-22T02:04:33;34.28;;;30.45;;
52124;SDS011;38119;52.710;6.398;2023-06-22T02:07:08;35.58;;;31.27;;
52124;SDS011;38119;52.710;6.398;2023-06-22T02:09:38;38.67;;;32.58;;
52124;SDS011;38119;52.710;6.398;2023-06-22T02:12:05;37.10;;;31.67;;
52124;SDS011;38119;52.710;6.398;2023-06-22T02:14:32;37.92;;;32.00;;
52124;SDS011;38119;52.710;6.398;2023-06-22T02:16:59;37.50;;;33.25;;
52124;SDS011;38119;52.710;6.398;2023-06-22T02:19:26;40.67;;;33.17;;
52124;SDS011;38119;52.710;6.398;2023-06-22T02:21:52;38.40;;;32.58;;
52124;SDS011;38119;52.710;6.398;2023-06-22T02:24:18;37.08;;;31.90;;
52124;SDS011;38119;52.710;6.398;2023-06-22T02:26:43;37.00;;;31.63;;
52124;SDS011;38119;52.710;6.398;2023-06-22T02:29:10;39.53;;;32.13;;
52124;SDS011;38119;52.710;6.398;2023-06-22T02:31:36;38.90;;;32.53;;
52124;SDS011;38119;52.710;6.398;2023-06-22T02:34:02;39.53;;;32.53;;
52124;SDS011;38119;52.710;6.398;2023-06-22T02:36:27;39.17;;;32.22;;
52124;SDS011;38119;52.710;6.398;2023-06-22T02:38:55;36.30;;;32.40;;
52124;SDS011;38119;52.710;6.398;2023-06-22T02:41:26;36.95;;;32.65;;
52124;SDS011;38119;52.710;6.398;2023-06-22T02:43:52;40.42;;;33.53;;
52124;SDS011;38119;52.710;6.398;2023-06-22T02:46:17;38.28;;;32.55;;
52124;SDS011;38119;52.710;6.398;2023-06-22T02:48:43;38.35;;;34.15;;
52124;SDS011;38119;52.710;6.398;2023-06-22T02:51:09;37.83;;;32.33;;
52124;SDS011;38119;52.710;6.398;2023-06-22T02:53:34;36.37;;;32.10;;
52124;SDS011;38119;52.710;6.398;2023-06-22T02:56:03;36.88;;;32.50;;
52124;SDS011;38119;52.710;6.398;2023-06-22T02:58:32;36.55;;;31.80;;
52124;SDS011;38119;52.710;6.398;2023-06-22T03:01:04;36.25;;;31.98;;
52124;SDS011;38119;52.710;6.398;2023-06-22T03:03:30;37.55;;;32.95;;
52124;SDS011;38119;52.710;6.398;2023-06-22T03:05:56;39.08;;;31.92;;
52124;SDS011;38119;52.710;6.398;2023-06-22T03:08:21;35.90;;;31.10;;
52124;SDS011;38119;52.710;6.398;2023-06-22T03:10:47;36.33;;;32.22;;
52124;SDS011;38119;52.710;6.398;2023-06-22T03:13:13;40.37;;;32.53;;
52124;SDS011;38119;52.710;6.398;2023-06-22T03:15:38;37.47;;;32.70;;
52124;SDS011;38119;52.710;6.398;2023-06-22T03:18:04;38.23;;;32.00;;
52124;SDS011;38119;52.710;6.398;2023-06-22T03:20:30;35.60;;;31.73;;
52124;SDS011;38119;52.710;6.398;2023-06-22T03:22:58;38.53;;;32.03;;
52124;SDS011;38119;52.710;6.398;2023-06-22T03:25:24;36.80;;;31.88;;
52124;SDS011;38119;52.710;6.398;2023-06-22T03:27:50;36.03;;;31.83;;
52124;SDS011;38119;52.710;6.398;2023-06-22T03:30:15;37.27;;;31.77;;
52124;SDS011;38119;52.710;6.398;2023-06-22T03:32:41;38.38;;;33.22;;
52124;SDS011;38119;52.710;6.398;2023-06-22T03:35:08;36.53;;;32.53;;
52124;SDS011;38119;52.710;6.398;2023-06-22T03:37:35;38.95;;;33.08;;
52124;SDS011;38119;52.710;6.398;2023-06-22T03:40:01;39.13;;;33.83;;
52124;SDS011;38119;52.710;6.398;2023-06-22T03:42:28;38.45;;;33.08;;
52124;SDS011;38119;52.710;6.398;2023-06-22T03:44:54;40.38;;;34.42;;
52124;SDS011;38119;52.710;6.398;2023-06-22T03:47:20;38.93;;;34.33;;
52124;SDS011;38119;52.710;6.398;2023-06-22T03:49:45;42.03;;;34.87;;
52124;SDS011;38119;52.710;6.398;2023-06-22T03:52:11;39.80;;;34.15;;
52124;SDS011;38119;52.710;6.398;2023-06-22T03:54:36;40.60;;;34.75;;
52124;SDS011;38119;52.710;6.398;2023-06-22T03:57:02;41.63;;;35.30;;
52124;SDS011;38119;52.710;6.398;2023-06-22T03:59:28;40.00;;;34.83;;
52124;SDS011;38119;52.710;6.398;2023-06-22T04:01:53;41.23;;;35.70;;
52124;SDS011;38119;52.710;6.398;2023-06-22T04:04:19;39.87;;;35.20;;
52124;SDS011;38119;52.710;6.398;2023-06-22T04:06:45;40.90;;;35.92;;
52124;SDS011;38119;52.710;6.398;2023-06-22T04:09:11;41.05;;;36.15;;
52124;SDS011;38119;52.710;6.398;2023-06-22T04:11:37;43.60;;;35.85;;
52124;SDS011;38119;52.710;6.398;2023-06-22T04:14:02;42.70;;;36.53;;
52124;SDS011;38119;52.710;6.398;2023-06-22T04:16:28;42.35;;;36.20;;
52124;SDS011;38119;52.710;6.398;2023-06-22T04:18:54;42.33;;;36.23;;
52124;SDS011;38119;52.710;6.398;2023-06-22T04:21:19;41.83;;;35.90;;
52124;SDS011;38119;52.710;6.398;2023-06-22T04:23:45;42.42;;;36.67;;
52124;SDS011;38119;52.710;6.398;2023-06-22T04:26:11;41.53;;;36.60;;
52124;SDS011;38119;52.710;6.398;2023-06-22T04:28:39;41.90;;;36.72;;
52124;SDS011;38119;52.710;6.398;2023-06-22T04:31:05;41.28;;;36.75;;
52124;SDS011;38119;52.710;6.398;2023-06-22T04:33:30;43.35;;;36.58;;
52124;SDS011;38119;52.710;6.398;2023-06-22T04:35:56;42.58;;;37.88;;
52124;SDS011;38119;52.710;6.398;2023-06-22T04:38:23;45.93;;;37.80;;
52124;SDS011;38119;52.710;6.398;2023-06-22T04:40:49;43.42;;;36.88;;
52124;SDS011;38119;52.710;6.398;2023-06-22T04:43:19;42.45;;;35.47;;
52124;SDS011;38119;52.710;6.398;2023-06-22T04:45:45;43.15;;;36.72;;
52124;SDS011;38119;52.710;6.398;2023-06-22T04:48:10;42.53;;;36.35;;
52124;SDS011;38119;52.710;6.398;2023-06-22T04:50:41;44.88;;;36.92;;
52124;SDS011;38119;52.710;6.398;2023-06-22T04:53:07;42.17;;;36.63;;
52124;SDS011;38119;52.710;6.398;2023-06-22T04:55:37;41.78;;;36.58;;
52124;SDS011;38119;52.710;6.398;2023-06-22T04:58:06;43.75;;;37.78;;
52124;SDS011;38119;52.710;6.398;2023-06-22T05:00:32;43.80;;;37.47;;
52124;SDS011;38119;52.710;6.398;2023-06-22T05:03:01;43.13;;;36.75;;
52124;SDS011;38119;52.710;6.398;2023-06-22T05:05:28;43.70;;;36.87;;
52124;SDS011;38119;52.710;6.398;2023-06-22T05:07:56;41.50;;;36.65;;
52124;SDS011;38119;52.710;6.398;2023-06-22T05:10:24;45.15;;;36.97;;
52124;SDS011;38119;52.710;6.398;2023-06-22T05:12:51;42.35;;;35.90;;
52124;SDS011;38119;52.710;6.398;2023-06-22T05:15:16;41.77;;;36.57;;
52124;SDS011;38119;52.710;6.398;2023-06-22T05:17:44;42.58;;;36.22;;
52124;SDS011;38119;52.710;6.398;2023-06-22T05:20:10;41.30;;;36.22;;
52124;SDS011;38119;52.710;6.398;2023-06-22T05:22:37;41.38;;;36.67;;
52124;SDS011;38119;52.710;6.398;2023-06-22T05:25:05;43.00;;;36.30;;
52124;SDS011;38119;52.710;6.398;2023-06-22T05:27:33;43.10;;;37.20;;
52124;SDS011;38119;52.710;6.398;2023-06-22T05:29:58;41.83;;;36.20;;
52124;SDS011;38119;52.710;6.398;2023-06-22T05:32:24;41.45;;;36.20;;
52124;SDS011;38119;52.710;6.398;2023-06-22T05:34:49;41.13;;;35.55;;
52124;SDS011;38119;52.710;6.398;2023-06-22T05:37:15;44.77;;;37.57;;
52124;SDS011;38119;52.710;6.398;2023-06-22T05:39:41;40.53;;;35.50;;
52124;SDS011;38119;52.710;6.398;2023-06-22T05:42:07;41.63;;;36.38;;
52124;SDS011;38119;52.710;6.398;2023-06-22T05:44:33;42.08;;;36.40;;
52124;SDS011;38119;52.710;6.398;2023-06-22T05:46:58;40.90;;;36.28;;
52124;SDS011;38119;52.710;6.398;2023-06-22T05:49:24;40.53;;;34.95;;
52124;SDS011;38119;52.710;6.398;2023-06-22T05:51:54;40.47;;;34.88;;
52124;SDS011;38119;52.710;6.398;2023-06-22T05:54:21;40.83;;;34.38;;
52124;SDS011;38119;52.710;6.398;2023-06-22T05:56:47;39.17;;;33.80;;
52124;SDS011;38119;52.710;6.398;2023-06-22T05:59:13;37.40;;;33.13;;
52124;SDS011;38119;52.710;6.398;2023-06-22T06:01:39;43.03;;;33.57;;
52124;SDS011;38119;52.710;6.398;2023-06-22T06:04:05;36.45;;;32.42;;
52124;SDS011;38119;52.710;6.398;2023-06-22T06:06:33;38.65;;;31.52;;
52124;SDS011;38119;52.710;6.398;2023-06-22T06:09:02;34.57;;;30.63;;
52124;SDS011;38119;52.710;6.398;2023-06-22T06:11:29;37.10;;;31.20;;
52124;SDS011;38119;52.710;6.398;2023-06-22T06:13:54;34.00;;;29.80;;
52124;SDS011;38119;52.710;6.398;2023-06-22T06:16:20;31.97;;;28.50;;
52124;SDS011;38119;52.710;6.398;2023-06-22T06:18:48;35.03;;;28.60;;
52124;SDS011;38119;52.710;6.398;2023-06-22T06:21:18;32.40;;;28.55;;
52124;SDS011;38119;52.710;6.398;2023-06-22T06:23:45;30.95;;;26.42;;
52124;SDS011;38119;52.710;6.398;2023-06-22T06:26:22;31.52;;;26.42;;
52124;SDS011;38119;52.710;6.398;2023-06-22T06:28:54;29.23;;;25.63;;
52124;SDS011;38119;52.710;6.398;2023-06-22T06:31:35;28.07;;;24.87;;
52124;SDS011;38119;52.710;6.398;2023-06-22T06:35:25;27.35;;;24.35;;
52124;SDS011;38119;52.710;6.398;2023-06-22T06:38:51;27.70;;;24.02;;
52124;SDS011;38119;52.710;6.398;2023-06-22T06:42:13;27.38;;;24.33;;
52124;SDS011;38119;52.710;6.398;2023-06-22T06:44:42;28.07;;;23.77;;
52124;SDS011;38119;52.710;6.398;2023-06-22T06:47:36;25.75;;;22.40;;
52124;SDS011;38119;52.710;6.398;2023-06-22T06:50:11;24.27;;;21.47;;
52124;SDS011;38119;52.710;6.398;2023-06-22T06:52:42;22.95;;;20.52;;
52124;SDS011;38119;52.710;6.398;2023-06-22T06:55:12;23.95;;;21.30;;
52124;SDS011;38119;52.710;6.398;2023-06-22T06:57:58;23.37;;;20.87;;
52124;SDS011;38119;52.710;6.398;2023-06-22T07:00:26;24.23;;;21.63;;
52124;SDS011;38119;52.710;6.398;2023-06-22T07:03:13;23.70;;;20.73;;
52124;SDS011;38119;52.710;6.398;2023-06-22T07:05:50;22.48;;;19.63;;
52124;SDS011;38119;52.710;6.398;2023-06-22T07:08:30;22.65;;;20.02;;
52124;SDS011;38119;52.710;6.398;2023-06-22T07:11:46;21.55;;;18.95;;
52124;SDS011;38119;52.710;6.398;2023-06-22T07:14:49;21.45;;;19.10;;
52124;SDS011;38119;52.710;6.398;2023-06-22T07:17:42;19.58;;;17.23;;
52124;SDS011;38119;52.710;6.398;2023-06-22T07:21:05;21.60;;;18.67;;
52124;SDS011;38119;52.710;6.398;2023-06-22T07:24:22;21.08;;;16.50;;
52124;SDS011;38119;52.710;6.398;2023-06-22T07:27:18;19.70;;;17.05;;
52124;SDS011;38119;52.710;6.398;2023-06-22T07:34:03;17.20;;;14.63;;
52124;SDS011;38119;52.710;6.398;2023-06-22T07:40:46;18.25;;;15.38;;
52124;SDS011;38119;52.710;6.398;2023-06-22T07:44:29;18.80;;;15.13;;
52124;SDS011;38119;52.710;6.398;2023-06-22T07:48:21;17.70;;;14.30;;
52124;SDS011;38119;52.710;6.398;2023-06-22T07:51:55;17.73;;;14.18;;
52124;SDS011;38119;52.710;6.398;2023-06-22T07:58:40;16.85;;;14.65;;
52124;SDS011;38119;52.710;6.398;2023-06-22T08:01:52;17.27;;;14.07;;
52124;SDS011;38119;52.710;6.398;2023-06-22T08:04:59;16.77;;;12.48;;
52124;SDS011;38119;52.710;6.398;2023-06-22T08:08:54;16.73;;;12.80;;
52124;SDS011;38119;52.710;6.398;2023-06-22T08:12:31;14.20;;;11.90;;
52124;SDS011;38119;52.710;6.398;2023-06-22T08:15:59;14.73;;;12.00;;
52124;SDS011;38119;52.710;6.398;2023-06-22T08:19:12;14.20;;;11.00;;
52124;SDS011;38119;52.710;6.398;2023-06-22T08:21:53;14.93;;;11.90;;
52124;SDS011;38119;52.710;6.398;2023-06-22T08:27:58;13.27;;;10.57;;
52124;SDS011;38119;52.710;6.398;2023-06-22T08:31:02;11.52;;;9.18;;
52124;SDS011;38119;52.710;6.398;2023-06-22T08:34:30;12.15;;;8.52;;
52124;SDS011;38119;52.710;6.398;2023-06-22T08:37:40;10.10;;;8.32;;
52124;SDS011;38119;52.710;6.398;2023-06-22T08:41:21;11.52;;;7.80;;
52124;SDS011;38119;52.710;6.398;2023-06-22T08:45:05;10.68;;;8.32;;
52124;SDS011;38119;52.710;6.398;2023-06-22T08:47:40;11.57;;;8.07;;
52124;SDS011;38119;52.710;6.398;2023-06-22T08:50:11;9.85;;;7.70;;
52124;SDS011;38119;52.710;6.398;2023-06-22T08:52:40;10.73;;;7.28;;
52124;SDS011;38119;52.710;6.398;2023-06-22T08:55:09;8.63;;;6.43;;
52124;SDS011;38119;52.710;6.398;2023-06-22T08:57:36;10.13;;;7.07;;
52124;SDS011;38119;52.710;6.398;2023-06-22T09:00:07;8.95;;;7.10;;
52124;SDS011;38119;52.710;6.398;2023-06-22T09:02:58;8.52;;;6.40;;
52124;SDS011;38119;52.710;6.398;2023-06-22T09:05:40;8.30;;;6.18;;
52124;SDS011;38119;52.710;6.398;2023-06-22T09:08:10;9.50;;;6.43;;
52124;SDS011;38119;52.710;6.398;2023-06-22T09:10:55;8.30;;;6.10;;
52124;SDS011;38119;52.710;6.398;2023-06-22T09:13:25;7.85;;;5.93;;
52124;SDS011;38119;52.710;6.398;2023-06-22T09:16:01;9.02;;;6.40;;
52124;SDS011;38119;52.710;6.398;2023-06-22T09:18:28;8.10;;;6.55;;
52124;SDS011;38119;52.710;6.398;2023-06-22T09:20:55;8.43;;;5.97;;
52124;SDS011;38119;52.710;6.398;2023-06-22T09:23:26;9.00;;;5.60;;
52124;SDS011;38119;52.710;6.398;2023-06-22T09:25:54;9.07;;;5.70;;
52124;SDS011;38119;52.710;6.398;2023-06-22T09:28:21;8.32;;;6.05;;
52124;SDS011;38119;52.710;6.398;2023-06-22T09:31:08;8.83;;;6.40;;
52124;SDS011;38119;52.710;6.398;2023-06-22T09:33:39;8.35;;;6.53;;
52124;SDS011;38119;52.710;6.398;2023-06-22T09:36:09;8.90;;;5.22;;
52124;SDS011;38119;52.710;6.398;2023-06-22T09:38:38;7.95;;;6.00;;
52124;SDS011;38119;52.710;6.398;2023-06-22T09:41:13;7.78;;;5.43;;
52124;SDS011;38119;52.710;6.398;2023-06-22T09:44:05;8.65;;;5.88;;
52124;SDS011;38119;52.710;6.398;2023-06-22T09:46:37;7.32;;;5.72;;
52124;SDS011;38119;52.710;6.398;2023-06-22T09:49:24;7.90;;;5.90;;
52124;SDS011;38119;52.710;6.398;2023-06-22T09:51:55;8.15;;;6.40;;
52124;SDS011;38119;52.710;6.398;2023-06-22T09:54:29;8.35;;;6.00;;
52124;SDS011;38119;52.710;6.398;2023-06-22T09:57:03;8.85;;;6.18;;
52124;SDS011;38119;52.710;6.398;2023-06-22T09:59:32;7.80;;;5.90;;
52124;SDS011;38119;52.710;6.398;2023-06-22T10:02:02;9.07;;;6.10;;
52124;SDS011;38119;52.710;6.398;2023-06-22T10:04:39;7.80;;;5.63;;
52124;SDS011;38119;52.710;6.398;2023-06-22T10:07:07;7.25;;;5.30;;
52124;SDS011;38119;52.710;6.398;2023-06-22T10:09:45;9.40;;;5.90;;
52124;SDS011;38119;52.710;6.398;2023-06-22T10:12:23;7.72;;;5.30;;
52124;SDS011;38119;52.710;6.398;2023-06-22T10:15:08;7.05;;;5.40;;
52124;SDS011;38119;52.710;6.398;2023-06-22T10:18:05;9.25;;;6.25;;
52124;SDS011;38119;52.710;6.398;2023-06-22T10:20:36;7.78;;;6.05;;
52124;SDS011;38119;52.710;6.398;2023-06-22T10:23:32;8.35;;;5.45;;
52124;SDS011;38119;52.710;6.398;2023-06-22T10:26:39;7.63;;;4.85;;
52124;SDS011;38119;52.710;6.398;2023-06-22T10:29:14;8.93;;;6.13;;
52124;SDS011;38119;52.710;6.398;2023-06-22T10:32:43;7.57;;;5.75;;
52124;SDS011;38119;52.710;6.398;2023-06-22T10:35:13;7.53;;;5.38;;
52124;SDS011;38119;52.710;6.398;2023-06-22T10:37:44;8.80;;;5.80;;
52124;SDS011;38119;52.710;6.398;2023-06-22T10:41:04;9.13;;;5.70;;
52124;SDS011;38119;52.710;6.398;2023-06-22T10:44:13;7.05;;;5.75;;
52124;SDS011;38119;52.710;6.398;2023-06-22T10:47:02;7.77;;;5.67;;
52124;SDS011;38119;52.710;6.398;2023-06-22T10:49:43;8.20;;;6.47;;
52124;SDS011;38119;52.710;6.398;2023-06-22T10:56:15;8.20;;;5.97;;
52124;SDS011;38119;52.710;6.398;2023-06-22T11:51:34;9.00;;;6.47;;
52124;SDS011;38119;52.710;6.398;2023-06-22T12:06:46;8.20;;;5.72;;
52124;SDS011;38119;52.710;6.398;2023-06-22T13:31:37;7.65;;;6.32;;
52124;SDS011;38119;52.710;6.398;2023-06-22T13:51:17;9.20;;;6.45;;
52124;SDS011;38119;52.710;6.398;2023-06-22T14:08:30;8.48;;;5.78;;
52124;SDS011;38119;52.710;6.398;2023-06-22T14:13:48;8.73;;;5.97;;
52124;SDS011;38119;52.710;6.398;2023-06-22T14:16:22;8.77;;;6.38;;
52124;SDS011;38119;52.710;6.398;2023-06-22T14:19:27;8.82;;;6.72;;
52124;SDS011;38119;52.710;6.398;2023-06-22T14:22:41;8.90;;;6.65;;
52124;SDS011;38119;52.710;6.398;2023-06-22T14:28:06;7.10;;;6.22;;
52124;SDS011;38119;52.710;6.398;2023-06-22T14:30:38;7.50;;;6.70;;
52124;SDS011;38119;52.710;6.398;2023-06-22T14:43:50;10.43;;;8.15;;
52124;SDS011;38119;52.710;6.398;2023-06-22T14:47:47;12.88;;;9.13;;
52124;SDS011;38119;52.710;6.398;2023-06-22T14:58:09;14.48;;;11.55;;
52124;SDS011;38119;52.710;6.398;2023-06-22T15:38:24;16.25;;;12.38;;
52124;SDS011;38119;52.710;6.398;2023-06-22T15:49:09;15.50;;;13.00;;
52124;SDS011;38119;52.710;6.398;2023-06-22T15:59:40;14.83;;;12.97;;
52124;SDS011;38119;52.710;6.398;2023-06-22T16:03:26;13.68;;;12.02;;
52124;SDS011;38119;52.710;6.398;2023-06-22T16:07:23;13.82;;;11.73;;
52124;SDS011;38119;52.710;6.398;2023-06-22T16:11:23;14.38;;;11.50;;
52124;SDS011;38119;52.710;6.398;2023-06-22T16:36:31;11.40;;;9.05;;
52124;SDS011;38119;52.710;6.398;2023-06-22T16:42:39;12.35;;;8.68;;
52124;SDS011;38119;52.710;6.398;2023-06-22T16:45:58;13.18;;;8.82;;
52124;SDS011;38119;52.710;6.398;2023-06-22T16:48:24;12.00;;;8.85;;
52124;SDS011;38119;52.710;6.398;2023-06-22T16:50:51;12.00;;;8.80;;
52124;SDS011;38119;52.710;6.398;2023-06-22T16:57:41;11.05;;;9.23;;
52124;SDS011;38119;52.710;6.398;2023-06-22T17:00:13;12.95;;;9.38;;
52124;SDS011;38119;52.710;6.398;2023-06-22T17:03:04;10.70;;;8.82;;
52124;SDS011;38119;52.710;6.398;2023-06-22T17:09:26;12.40;;;7.93;;
52124;SDS011;38119;52.710;6.398;2023-06-22T17:11:55;10.90;;;7.95;;
52124;SDS011;38119;52.710;6.398;2023-06-22T17:14:21;10.93;;;8.27;;
52124;SDS011;38119;52.710;6.398;2023-06-22T17:16:47;11.90;;;7.97;;
52124;SDS011;38119;52.710;6.398;2023-06-22T17:19:14;10.05;;;7.25;;
52124;SDS011;38119;52.710;6.398;2023-06-22T17:21:42;9.20;;;6.75;;
52124;SDS011;38119;52.710;6.398;2023-06-22T17:24:17;7.82;;;6.53;;
52124;SDS011;38119;52.710;6.398;2023-06-22T17:26:53;9.55;;;7.28;;
52124;SDS011;38119;52.710;6.398;2023-06-22T17:29:20;11.43;;;7.50;;
52124;SDS011;38119;52.710;6.398;2023-06-22T17:31:46;8.48;;;6.40;;
52124;SDS011;38119;52.710;6.398;2023-06-22T17:34:13;9.10;;;6.35;;
52124;SDS011;38119;52.710;6.398;2023-06-22T17:36:43;9.32;;;5.80;;
52124;SDS011;38119;52.710;6.398;2023-06-22T17:39:14;7.43;;;4.85;;
52124;SDS011;38119;52.710;6.398;2023-06-22T17:41:43;6.75;;;4.72;;
52124;SDS011;38119;52.710;6.398;2023-06-22T17:44:13;7.18;;;4.20;;
52124;SDS011;38119;52.710;6.398;2023-06-22T17:46:53;6.10;;;3.67;;
52124;SDS011;38119;52.710;6.398;2023-06-22T17:49:20;5.63;;;3.85;;
52124;SDS011;38119;52.710;6.398;2023-06-22T17:51:49;7.63;;;3.90;;
52124;SDS011;38119;52.710;6.398;2023-06-22T17:54:15;6.10;;;4.35;;
52124;SDS011;38119;52.710;6.398;2023-06-22T17:56:41;10.23;;;5.88;;
52124;SDS011;38119;52.710;6.398;2023-06-22T17:59:06;10.57;;;7.17;;
52124;SDS011;38119;52.710;6.398;2023-06-22T18:04:05;8.07;;;5.45;;
52124;SDS011;38119;52.710;6.398;2023-06-22T18:06:33;7.80;;;3.90;;
52124;SDS011;38119;52.710;6.398;2023-06-22T18:09:04;4.72;;;3.22;;
52124;SDS011;38119;52.710;6.398;2023-06-22T18:11:49;5.35;;;3.40;;
52124;SDS011;38119;52.710;6.398;2023-06-22T18:14:19;6.70;;;3.73;;
52124;SDS011;38119;52.710;6.398;2023-06-22T18:16:49;5.18;;;3.28;;
52124;SDS011;38119;52.710;6.398;2023-06-22T18:19:17;10.07;;;6.05;;
52124;SDS011;38119;52.710;6.398;2023-06-22T18:21:46;14.20;;;9.30;;
52124;SDS011;38119;52.710;6.398;2023-06-22T18:24:13;11.38;;;7.93;;
52124;SDS011;38119;52.710;6.398;2023-06-22T18:26:43;9.48;;;5.25;;
52124;SDS011;38119;52.710;6.398;2023-06-22T18:29:10;6.38;;;3.95;;
52124;SDS011;38119;52.710;6.398;2023-06-22T18:31:36;5.87;;;3.53;;
52124;SDS011;38119;52.710;6.398;2023-06-22T18:34:02;6.45;;;3.47;;
52124;SDS011;38119;52.710;6.398;2023-06-22T18:36:29;5.47;;;4.00;;
52124;SDS011;38119;52.710;6.398;2023-06-22T18:39:01;10.82;;;5.85;;
52124;SDS011;38119;52.710;6.398;2023-06-22T18:41:33;13.27;;;7.33;;
52124;SDS011;38119;52.710;6.398;2023-06-22T18:44:07;11.50;;;6.70;;
52124;SDS011;38119;52.710;6.398;2023-06-22T18:46:46;9.23;;;5.30;;
52124;SDS011;38119;52.710;6.398;2023-06-22T18:49:18;7.13;;;4.30;;
52124;SDS011;38119;52.710;6.398;2023-06-22T18:52:06;6.15;;;3.92;;
52124;SDS011;38119;52.710;6.398;2023-06-22T18:54:43;7.20;;;3.92;;
52124;SDS011;38119;52.710;6.398;2023-06-22T18:57:22;6.35;;;4.40;;
52124;SDS011;38119;52.710;6.398;2023-06-22T19:12:55;11.60;;;6.63;;
52124;SDS011;38119;52.710;6.398;2023-06-22T19:15:21;10.40;;;6.40;;
52124;SDS011;38119;52.710;6.398;2023-06-22T19:17:56;9.85;;;6.15;;
52124;SDS011;38119;52.710;6.398;2023-06-22T19:20:30;6.95;;;4.82;;
52124;SDS011;38119;52.710;6.398;2023-06-22T19:22:58;6.72;;;4.82;;
52124;SDS011;38119;52.710;6.398;2023-06-22T19:25:27;6.97;;;4.70;;
52124;SDS011;38119;52.710;6.398;2023-06-22T19:28:00;9.73;;;5.35;;
52124;SDS011;38119;52.710;6.398;2023-06-22T19:30:27;8.38;;;5.20;;
52124;SDS011;38119;52.710;6.398;2023-06-22T19:32:55;11.32;;;6.90;;
52124;SDS011;38119;52.710;6.398;2023-06-22T19:35:21;11.77;;;7.10;;
52124;SDS011;38119;52.710;6.398;2023-06-22T19:37:47;11.83;;;7.00;;
52124;SDS011;38119;52.710;6.398;2023-06-22T19:40:14;11.15;;;7.90;;
52124;SDS011;38119;52.710;6.398;2023-06-22T19:42:41;11.25;;;7.28;;
52124;SDS011;38119;52.710;6.398;2023-06-22T19:45:09;10.02;;;6.90;;
52124;SDS011;38119;52.710;6.398;2023-06-22T19:47:39;8.48;;;5.68;;
52124;SDS011;38119;52.710;6.398;2023-06-22T19:50:05;8.50;;;5.80;;
52124;SDS011;38119;52.710;6.398;2023-06-22T19:52:35;11.40;;;7.63;;
52124;SDS011;38119;52.710;6.398;2023-06-22T19:55:01;12.18;;;7.72;;
52124;SDS011;38119;52.710;6.398;2023-06-22T19:57:32;12.02;;;7.45;;
52124;SDS011;38119;52.710;6.398;2023-06-22T20:00:02;9.27;;;6.13;;
52124;SDS011;38119;52.710;6.398;2023-06-22T20:02:36;8.65;;;5.80;;
52124;SDS011;38119;52.710;6.398;2023-06-22T20:05:05;7.68;;;5.30;;
52124;SDS011;38119;52.710;6.398;2023-06-22T20:07:38;10.52;;;6.15;;
52124;SDS011;38119;52.710;6.398;2023-06-22T20:12:35;8.68;;;5.95;;
52124;SDS011;38119;52.710;6.398;2023-06-22T20:17:52;8.52;;;5.80;;
52124;SDS011;38119;52.710;6.398;2023-06-22T20:20:22;9.43;;;6.13;;
52124;SDS011;38119;52.710;6.398;2023-06-22T20:22:49;9.00;;;5.93;;
52124;SDS011;38119;52.710;6.398;2023-06-22T20:25:19;7.90;;;5.60;;
52124;SDS011;38119;52.710;6.398;2023-06-22T20:27:48;8.35;;;5.70;;
52124;SDS011;38119;52.710;6.398;2023-06-22T20:30:15;8.32;;;5.35;;
52124;SDS011;38119;52.710;6.398;2023-06-22T20:32:45;9.23;;;5.78;;
52124;SDS011;38119;52.710;6.398;2023-06-22T20:35:15;9.37;;;5.87;;
52124;SDS011;38119;52.710;6.398;2023-06-22T20:37:42;8.67;;;5.60;;
52124;SDS011;38119;52.710;6.398;2023-06-22T20:40:08;9.10;;;5.87;;
52124;SDS011;38119;52.710;6.398;2023-06-22T20:42:34;10.35;;;5.78;;
52124;SDS011;38119;52.710;6.398;2023-06-22T20:45:00;8.75;;;5.80;;
52124;SDS011;38119;52.710;6.398;2023-06-22T20:47:26;9.75;;;6.03;;
52124;SDS011;38119;52.710;6.398;2023-06-22T20:49:52;9.75;;;6.47;;
52124;SDS011;38119;52.710;6.398;2023-06-22T20:52:22;8.93;;;5.70;;
52124;SDS011;38119;52.710;6.398;2023-06-22T20:54:47;8.18;;;5.80;;
52124;SDS011;38119;52.710;6.398;2023-06-22T20:57:13;9.63;;;5.93;;
52124;SDS011;38119;52.710;6.398;2023-06-22T20:59:38;8.57;;;6.30;;
52124;SDS011;38119;52.710;6.398;2023-06-22T21:02:04;9.00;;;6.30;;